createdAt,value
2022-11-17T05:30:42.261Z,973.88
2022-11-17T05:31:42.139Z,973.84
2022-11-17T05:32:42.103Z,973.89
2022-11-17T05:33:42.512Z,973.87
2022-11-17T05:34:42.079Z,973.89
2022-11-17T05:35:42.099Z,973.92
2022-11-17T05:36:42.108Z,973.82
2022-11-17T05:37:42.057Z,973.82
2022-11-17T05:38:42.042Z,973.89
2022-11-17T05:39:42.030Z,973.84
2022-11-17T05:40:42.047Z,973.77
2022-11-17T05:41:42.025Z,973.79
2022-11-17T05:42:42.002Z,973.78
2022-11-17T05:43:41.987Z,973.77
2022-11-17T05:44:41.980Z,973.88
2022-11-17T05:45:41.985Z,973.81
2022-11-17T05:46:42.067Z,973.77
2022-11-17T05:47:41.978Z,973.80
2022-11-17T05:48:41.928Z,973.81
2022-11-17T05:49:41.945Z,973.87
2022-11-17T05:50:41.914Z,973.94
2022-11-17T05:51:41.906Z,973.81
2022-11-17T05:52:41.905Z,973.85
2022-11-17T05:53:41.891Z,973.85
2022-11-17T05:54:41.868Z,973.85
2022-11-17T05:55:41.888Z,973.84
2022-11-17T05:56:41.866Z,973.82
2022-11-17T05:57:41.831Z,973.82
2022-11-17T05:58:41.823Z,973.85
2022-11-17T05:59:41.819Z,973.84
2022-11-17T06:00:41.836Z,973.90
2022-11-17T06:01:41.810Z,973.94
2022-11-17T06:02:41.802Z,973.97
2022-11-17T06:03:41.767Z,973.99
2022-11-17T06:04:41.801Z,973.91
2022-11-17T06:05:41.760Z,973.98
2022-11-17T06:06:41.756Z,973.89
2022-11-17T06:07:41.741Z,973.95
2022-11-17T06:08:41.715Z,973.94
2022-11-17T06:09:41.701Z,973.96
2022-11-17T06:10:41.695Z,973.93
2022-11-17T06:11:41.703Z,973.99
2022-11-17T06:12:41.668Z,974.01
2022-11-17T06:13:41.680Z,973.97
2022-11-17T06:14:41.650Z,973.94
2022-11-17T06:15:41.634Z,973.96
2022-11-17T06:16:41.626Z,973.96
2022-11-17T06:17:41.653Z,973.97
2022-11-17T06:18:41.736Z,974.07
2022-11-17T06:19:41.598Z,974.00
2022-11-17T06:20:41.601Z,974.00
2022-11-17T06:22:04.844Z,973.99
2022-11-17T06:22:48.019Z,973.99
2022-11-17T06:23:42.563Z,973.99
2022-11-17T06:24:41.561Z,973.98
2022-11-17T06:25:41.569Z,974.10
2022-11-17T06:26:41.518Z,974.03
2022-11-17T06:27:41.503Z,974.02
2022-11-17T06:28:41.495Z,974.04
2022-11-17T06:29:44.594Z,974.12
2022-11-17T06:30:41.478Z,974.08
2022-11-17T06:31:41.482Z,974.14
2022-11-17T06:32:41.473Z,974.03
2022-11-17T06:33:41.441Z,974.02
2022-11-17T06:34:41.541Z,974.05
2022-11-17T06:35:41.437Z,974.02
2022-11-17T06:36:41.413Z,973.97
2022-11-17T06:37:41.415Z,974.03
2022-11-17T06:38:41.421Z,974.01
2022-11-17T06:39:41.375Z,974.01
2022-11-17T06:40:41.361Z,974.05
2022-11-17T06:41:41.363Z,974.04
2022-11-17T06:42:41.362Z,974.03
2022-11-17T06:43:41.331Z,973.99
2022-11-17T06:44:41.350Z,974.03
2022-11-17T06:45:41.325Z,974.03
2022-11-17T06:46:46.152Z,974.01
2022-11-17T06:47:42.299Z,974.11
2022-11-17T06:48:41.295Z,974.04
2022-11-17T06:49:41.268Z,974.12
2022-11-17T06:50:41.279Z,974.14
2022-11-17T06:51:45.167Z,974.16
2022-11-17T06:52:41.254Z,974.18
2022-11-17T06:53:41.277Z,974.13
2022-11-17T06:54:41.228Z,974.27
2022-11-17T06:55:41.231Z,974.37
2022-11-17T06:56:41.211Z,974.31
2022-11-17T06:57:41.191Z,974.32
2022-11-17T06:58:41.180Z,974.35
2022-11-17T06:59:41.239Z,974.36
2022-11-17T07:00:41.259Z,974.35
2022-11-17T07:01:41.150Z,974.36
2022-11-17T07:02:41.142Z,974.43
2022-11-17T07:03:41.124Z,974.48
2022-11-17T07:04:41.122Z,974.47
2022-11-17T07:05:41.152Z,974.47
2022-11-17T07:06:41.212Z,974.64
2022-11-17T07:07:41.155Z,974.75
2022-11-17T07:08:41.080Z,974.78
2022-11-17T07:09:41.079Z,974.90
2022-11-17T07:10:46.395Z,974.88
2022-11-17T07:11:41.070Z,974.93
2022-11-17T07:12:41.027Z,974.82
2022-11-17T07:13:41.034Z,974.76
2022-11-17T07:14:41.010Z,974.67
2022-11-17T07:15:40.998Z,974.67
2022-11-17T07:16:40.992Z,974.60
2022-11-17T07:17:41.003Z,974.69
2022-11-17T07:18:40.963Z,974.58
2022-11-17T07:19:40.972Z,974.60
2022-11-17T07:20:40.950Z,974.56
2022-11-17T07:21:40.957Z,974.44
2022-11-17T07:22:40.960Z,974.38
2022-11-17T07:23:40.920Z,974.55
2022-11-17T07:24:40.898Z,974.44
2022-11-17T07:25:40.902Z,974.39
2022-11-17T07:26:40.879Z,974.51
2022-11-17T07:27:40.867Z,974.61
2022-11-17T07:28:40.857Z,974.59
2022-11-17T07:29:40.880Z,974.58
2022-11-17T07:30:40.834Z,974.58
2022-11-17T07:31:40.824Z,974.72
2022-11-17T07:32:40.835Z,974.71
2022-11-17T07:33:40.824Z,974.76
2022-11-17T07:34:40.788Z,974.74
2022-11-17T07:35:40.823Z,974.77
2022-11-17T07:36:40.776Z,974.81
2022-11-17T07:37:40.752Z,974.84
2022-11-17T07:38:40.914Z,974.78
2022-11-17T07:39:40.727Z,974.75
2022-11-17T07:40:40.742Z,974.77
2022-11-17T07:41:40.743Z,974.80
2022-11-17T07:42:40.704Z,974.81
2022-11-17T07:43:40.687Z,974.73
2022-11-17T07:44:40.682Z,974.80
2022-11-17T07:45:40.682Z,974.80
2022-11-17T07:46:40.685Z,974.78
2022-11-17T07:47:40.647Z,974.82
2022-11-17T07:48:40.632Z,974.94
2022-11-17T07:49:40.619Z,974.88
2022-11-17T07:50:40.614Z,974.90
2022-11-17T07:51:40.593Z,974.93
2022-11-17T07:52:41.755Z,974.91
2022-11-17T07:53:40.596Z,974.95
2022-11-17T07:54:40.677Z,975.01
2022-11-17T07:55:40.555Z,975.02
2022-11-17T07:56:40.547Z,975.05
2022-11-17T07:57:40.551Z,975.11
2022-11-17T07:58:40.623Z,975.07
2022-11-17T07:59:40.545Z,974.95
2022-11-17T08:00:40.537Z,974.99
2022-11-17T08:01:40.487Z,975.01
2022-11-17T08:02:40.493Z,974.98
2022-11-17T08:03:40.561Z,975.13
2022-11-17T08:04:40.454Z,975.05
2022-11-17T08:05:43.632Z,975.08
2022-11-17T08:06:40.459Z,975.14
2022-11-17T08:07:40.513Z,975.21
2022-11-17T08:08:40.669Z,975.24
2022-11-17T08:09:40.399Z,975.22
2022-11-17T08:10:40.429Z,975.26
2022-11-17T08:11:40.390Z,975.27
2022-11-17T08:12:40.375Z,975.26
2022-11-17T08:13:40.357Z,975.26
2022-11-17T08:14:40.353Z,975.26
2022-11-17T08:15:40.334Z,975.25
2022-11-17T08:16:40.354Z,975.23
2022-11-17T08:17:40.338Z,975.30
2022-11-17T08:18:40.611Z,975.26
2022-11-17T08:19:40.301Z,975.23
2022-11-17T08:20:40.285Z,975.28
2022-11-17T08:21:40.287Z,975.23
2022-11-17T08:22:40.316Z,975.26
2022-11-17T08:23:40.272Z,975.29
2022-11-17T08:24:40.245Z,975.28
2022-11-17T08:25:40.229Z,975.27
2022-11-17T08:26:40.344Z,975.34
2022-11-17T08:27:40.212Z,975.34
2022-11-17T08:28:40.502Z,975.35
2022-11-17T08:29:40.209Z,975.34
2022-11-17T08:30:40.171Z,975.36
2022-11-17T08:31:40.179Z,975.38
2022-11-17T08:32:40.154Z,975.38
2022-11-17T08:33:40.137Z,975.38
2022-11-17T08:34:40.142Z,975.41
2022-11-17T08:35:40.154Z,975.42
2022-11-17T08:36:40.115Z,975.38
2022-11-17T08:37:40.105Z,975.43
2022-11-17T08:38:40.142Z,975.43
2022-11-17T08:39:40.076Z,975.42
2022-11-17T08:40:40.069Z,975.44
2022-11-17T08:41:40.095Z,975.44
2022-11-17T08:42:40.061Z,975.43
2022-11-17T08:43:40.034Z,975.41
2022-11-17T08:44:40.044Z,975.42
2022-11-17T08:45:40.063Z,975.43
2022-11-17T08:46:39.996Z,975.43
2022-11-17T08:47:40.000Z,975.46
2022-11-17T08:48:40.068Z,975.44
2022-11-17T08:49:39.975Z,975.47
2022-11-17T08:50:39.954Z,975.52
2022-11-17T08:51:39.958Z,975.52
2022-11-17T08:52:39.931Z,975.52
2022-11-17T08:53:39.938Z,975.49
2022-11-17T08:54:39.922Z,975.56
2022-11-17T08:55:41.507Z,975.58
2022-11-17T08:56:40.087Z,975.62
2022-11-17T08:57:39.880Z,975.56
2022-11-17T08:58:40.107Z,975.65
2022-11-17T08:59:39.864Z,975.67
2022-11-17T09:00:39.903Z,975.68
2022-11-17T09:01:39.906Z,975.69
2022-11-17T09:02:39.811Z,975.60
2022-11-17T09:03:39.810Z,975.69
2022-11-17T09:04:39.796Z,975.66
2022-11-17T09:05:39.837Z,975.71
2022-11-17T09:06:39.798Z,975.70
2022-11-17T09:07:39.819Z,975.70
2022-11-17T09:08:47.675Z,975.71
2022-11-17T09:09:40.807Z,975.75
2022-11-17T09:10:39.731Z,975.75
2022-11-17T09:11:39.770Z,975.76
2022-11-17T09:12:39.723Z,975.77
2022-11-17T09:13:39.720Z,975.79
2022-11-17T09:14:39.762Z,975.83
2022-11-17T09:15:39.697Z,975.82
2022-11-17T09:16:39.664Z,975.79
2022-11-17T09:17:39.666Z,975.77
2022-11-17T09:18:40.118Z,975.81
2022-11-17T09:19:39.629Z,975.78
2022-11-17T09:20:45.258Z,975.84
2022-11-17T09:21:40.634Z,975.85
2022-11-17T09:22:39.597Z,975.82
2022-11-17T09:23:39.806Z,975.90
2022-11-17T09:24:39.572Z,975.89
2022-11-17T09:25:39.563Z,975.92
2022-11-17T09:26:39.584Z,975.97
2022-11-17T09:27:39.543Z,975.91
2022-11-17T09:28:39.813Z,975.84
2022-11-17T09:29:39.533Z,975.85
2022-11-17T09:30:39.634Z,975.87
2022-11-17T09:31:39.554Z,975.89
2022-11-17T09:32:39.535Z,975.88
2022-11-17T09:33:39.473Z,975.88
2022-11-17T09:34:39.526Z,975.87
2022-11-17T09:35:39.468Z,975.91
2022-11-17T09:36:39.443Z,975.99
2022-11-17T09:37:39.453Z,975.97
2022-11-17T09:38:39.835Z,976.00
2022-11-17T09:39:39.412Z,976.02
2022-11-17T09:40:39.395Z,976.08
2022-11-17T09:41:39.411Z,976.13
2022-11-17T09:42:39.373Z,976.06
2022-11-17T09:43:39.381Z,976.16
2022-11-17T09:44:39.357Z,976.20
2022-11-17T09:45:39.367Z,976.21
2022-11-17T09:46:39.442Z,976.26
2022-11-17T09:47:39.376Z,976.22
2022-11-17T09:48:51.939Z,976.30
2022-11-17T09:49:40.297Z,976.25
2022-11-17T09:50:39.280Z,976.34
2022-11-17T09:51:39.295Z,976.37
2022-11-17T09:52:39.275Z,976.30
2022-11-17T09:53:39.273Z,976.21
2022-11-17T09:54:39.246Z,976.27
2022-11-17T09:55:39.260Z,976.27
2022-11-17T09:56:39.226Z,976.34
2022-11-17T09:57:39.211Z,976.32
2022-11-17T09:58:39.573Z,976.32
2022-11-17T09:59:39.213Z,976.28
2022-11-17T10:00:39.191Z,976.32
2022-11-17T10:01:39.284Z,976.31
2022-11-17T10:02:39.306Z,976.28
2022-11-17T10:03:45.197Z,976.29
2022-11-17T10:04:40.151Z,976.31
2022-11-17T10:05:39.152Z,976.29
2022-11-17T10:06:39.111Z,976.27
2022-11-17T10:07:39.111Z,976.32
2022-11-17T10:08:39.112Z,976.30
2022-11-17T10:09:39.081Z,976.25
2022-11-17T10:10:39.069Z,976.28
2022-11-17T10:11:39.104Z,976.29
2022-11-17T10:12:39.048Z,976.36
2022-11-17T10:13:39.062Z,976.34
2022-11-17T10:14:39.045Z,976.36
2022-11-17T10:15:39.015Z,976.45
2022-11-17T10:16:39.003Z,976.47
2022-11-17T10:17:39.023Z,976.49
2022-11-17T10:18:39.161Z,976.53
2022-11-17T10:19:38.971Z,976.51
2022-11-17T10:20:38.954Z,976.53
2022-11-17T10:21:38.950Z,976.59
2022-11-17T10:22:38.956Z,976.52
2022-11-17T10:23:45.909Z,976.57
2022-11-17T10:24:39.938Z,976.55
2022-11-17T10:25:38.909Z,976.57
2022-11-17T10:26:38.895Z,976.58
2022-11-17T10:27:38.906Z,976.60
2022-11-17T10:28:38.867Z,976.56
2022-11-17T10:29:38.882Z,976.53
2022-11-17T10:30:38.853Z,976.64
2022-11-17T10:31:38.846Z,976.65
2022-11-17T10:32:40.719Z,976.65
2022-11-17T10:33:39.897Z,976.64
2022-11-17T10:34:40.998Z,976.62
2022-11-17T10:35:38.815Z,976.63
2022-11-17T10:36:38.782Z,976.61
2022-11-17T10:37:38.812Z,976.68
2022-11-17T10:38:38.761Z,976.65
2022-11-17T10:39:38.748Z,976.63
2022-11-17T10:40:38.738Z,976.62
2022-11-17T10:41:38.761Z,976.67
2022-11-17T10:42:38.743Z,976.66
2022-11-17T10:43:38.886Z,976.64
2022-11-17T10:44:38.693Z,976.62
2022-11-17T10:45:38.714Z,976.64
2022-11-17T10:46:46.274Z,976.70
2022-11-17T10:47:38.677Z,976.69
2022-11-17T10:48:38.678Z,976.71
2022-11-17T10:49:38.641Z,976.78
2022-11-17T10:50:38.644Z,976.69
2022-11-17T10:51:38.635Z,976.71
2022-11-17T10:52:38.606Z,976.75
2022-11-17T10:53:44.909Z,976.70
2022-11-17T10:54:39.582Z,976.73
2022-11-17T10:55:38.590Z,976.74
2022-11-17T10:56:38.555Z,976.71
2022-11-17T10:57:38.571Z,976.72
2022-11-17T10:58:38.543Z,976.69
2022-11-17T10:59:38.549Z,976.66
2022-11-17T11:00:38.539Z,976.59
2022-11-17T11:01:38.590Z,976.62
2022-11-17T11:02:38.492Z,976.63
2022-11-17T11:03:38.836Z,976.63
2022-11-17T11:04:38.473Z,976.63
2022-11-17T11:05:38.477Z,976.62
2022-11-17T11:06:38.506Z,976.65
2022-11-17T11:07:38.543Z,976.70
2022-11-17T11:08:38.434Z,976.72
2022-11-17T11:09:38.441Z,976.65
2022-11-17T11:10:38.420Z,976.70
2022-11-17T11:11:38.407Z,976.76
2022-11-17T11:12:38.413Z,976.74
2022-11-17T11:13:38.384Z,976.71
2022-11-17T11:14:38.359Z,976.71
2022-11-17T11:15:38.378Z,976.70
2022-11-17T11:16:41.365Z,976.71
2022-11-17T11:17:39.341Z,976.80
2022-11-17T11:18:38.365Z,976.76
2022-11-17T11:19:38.312Z,976.83
2022-11-17T11:20:38.296Z,976.81
2022-11-17T11:21:38.289Z,976.83
2022-11-17T11:22:38.310Z,976.83
2022-11-17T11:23:38.297Z,976.89
2022-11-17T11:24:38.249Z,976.90
2022-11-17T11:25:38.325Z,976.91
2022-11-17T11:26:38.233Z,976.91
2022-11-17T11:27:38.223Z,976.93
2022-11-17T11:28:42.722Z,976.92
2022-11-17T11:29:39.206Z,976.93
2022-11-17T11:30:38.184Z,976.95
2022-11-17T11:31:38.182Z,976.89
2022-11-17T11:32:38.193Z,976.99
2022-11-17T11:33:38.166Z,976.96
2022-11-17T11:34:38.172Z,976.93
2022-11-17T11:35:38.131Z,976.96
2022-11-17T11:36:38.146Z,976.95
2022-11-17T11:37:38.114Z,977.01
2022-11-17T11:38:38.122Z,976.99
2022-11-17T11:39:38.113Z,977.02
2022-11-17T11:40:38.116Z,977.00
2022-11-17T11:41:38.099Z,977.03
2022-11-17T11:42:38.053Z,977.01
2022-11-17T11:43:38.047Z,977.02
2022-11-17T11:44:38.028Z,977.05
2022-11-17T11:45:38.036Z,977.03
2022-11-17T11:46:38.056Z,977.03
2022-11-17T11:47:38.000Z,976.98
2022-11-17T11:48:37.990Z,977.00
2022-11-17T11:49:38.127Z,977.03
2022-11-17T11:50:41.748Z,977.02
2022-11-17T11:51:37.952Z,977.06
2022-11-17T11:52:37.958Z,977.05
2022-11-17T11:53:37.945Z,977.04
2022-11-17T11:54:40.333Z,977.06
2022-11-17T11:55:37.915Z,977.06
2022-11-17T11:56:37.896Z,977.02
2022-11-17T11:57:37.898Z,977.07
2022-11-17T11:58:37.902Z,977.05
2022-11-17T11:59:37.881Z,977.09
2022-11-17T12:00:37.888Z,977.02
2022-11-17T12:01:37.839Z,977.10
2022-11-17T12:02:37.898Z,977.04
2022-11-17T12:03:37.906Z,977.07
2022-11-17T12:04:37.824Z,977.05
2022-11-17T12:05:37.816Z,977.04
2022-11-17T12:06:37.783Z,977.08
2022-11-17T12:07:37.832Z,977.11
2022-11-17T12:08:37.778Z,977.02
2022-11-17T12:09:37.771Z,977.07
2022-11-17T12:10:37.755Z,977.11
2022-11-17T12:11:37.735Z,977.07
2022-11-17T12:12:37.734Z,977.11
2022-11-17T12:13:43.834Z,977.12
2022-11-17T12:14:37.702Z,977.08
2022-11-17T12:15:37.726Z,977.13
2022-11-17T12:16:37.672Z,977.04
2022-11-17T12:17:37.665Z,977.06
2022-11-17T12:18:37.651Z,977.11
2022-11-17T12:19:37.661Z,977.14
2022-11-17T12:20:37.646Z,977.15
2022-11-17T12:21:37.636Z,977.12
2022-11-17T12:22:37.606Z,977.14
2022-11-17T12:23:37.642Z,977.18
2022-11-17T12:24:37.595Z,977.24
2022-11-17T12:25:37.577Z,977.18
2022-11-17T12:26:37.592Z,977.19
2022-11-17T12:27:37.575Z,977.13
2022-11-17T12:28:37.553Z,977.15
2022-11-17T12:29:37.536Z,977.18
2022-11-17T12:30:37.520Z,977.16
2022-11-17T12:31:37.574Z,977.16
2022-11-17T12:32:37.511Z,977.15
2022-11-17T12:33:37.492Z,977.15
2022-11-17T12:34:37.498Z,977.12
2022-11-17T12:35:37.461Z,977.16
2022-11-17T12:36:37.523Z,977.09
2022-11-17T12:37:37.474Z,977.10
2022-11-17T12:38:37.467Z,977.13
2022-11-17T12:39:37.424Z,977.12
2022-11-17T12:40:37.409Z,977.12
2022-11-17T12:41:37.406Z,977.11
2022-11-17T12:42:37.416Z,977.11
2022-11-17T12:43:37.377Z,977.16
2022-11-17T12:44:37.418Z,977.17
2022-11-17T12:45:41.750Z,977.09
2022-11-17T12:46:37.345Z,977.09
2022-11-17T12:47:37.396Z,977.12
2022-11-17T12:48:37.488Z,977.14
2022-11-17T12:49:37.315Z,977.15
2022-11-17T12:50:37.359Z,977.08
2022-11-17T12:51:37.297Z,977.10
2022-11-17T12:52:37.285Z,977.12
2022-11-17T12:53:37.263Z,977.11
2022-11-17T12:54:37.258Z,977.14
2022-11-17T12:55:37.267Z,977.09
2022-11-17T12:56:37.254Z,977.04
2022-11-17T12:57:37.227Z,977.02
2022-11-17T12:58:37.241Z,977.07
2022-11-17T12:59:37.224Z,977.02
2022-11-17T13:00:37.212Z,977.04
2022-11-17T13:01:37.227Z,977.06
2022-11-17T13:02:37.217Z,977.04
2022-11-17T13:03:37.182Z,977.05
2022-11-17T13:04:37.180Z,977.04
2022-11-17T13:05:37.138Z,977.00
2022-11-17T13:06:37.304Z,977.00
2022-11-17T13:07:37.182Z,977.01
2022-11-17T13:08:37.116Z,977.09
2022-11-17T13:09:37.135Z,977.11
2022-11-17T13:10:37.097Z,977.09
2022-11-17T13:11:37.073Z,977.04
2022-11-17T13:12:37.065Z,977.06
2022-11-17T13:13:37.793Z,977.18
2022-11-17T13:14:37.073Z,977.12
2022-11-17T13:15:37.051Z,977.16
2022-11-17T13:16:37.027Z,977.18
2022-11-17T13:17:37.003Z,977.20
2022-11-17T13:18:36.994Z,977.20
2022-11-17T13:19:37.014Z,977.19
2022-11-17T13:20:36.977Z,977.25
2022-11-17T13:21:36.957Z,977.25
2022-11-17T13:22:41.760Z,977.23
2022-11-17T13:23:36.943Z,977.25
2022-11-17T13:24:36.973Z,977.19
2022-11-17T13:25:36.919Z,977.27
2022-11-17T13:26:36.952Z,977.28
2022-11-17T13:27:36.897Z,977.26
2022-11-17T13:28:36.901Z,977.29
2022-11-17T13:29:36.893Z,977.28
2022-11-17T13:30:36.916Z,977.33
2022-11-17T13:31:36.847Z,977.28
2022-11-17T13:32:36.845Z,977.31
2022-11-17T13:33:40.147Z,977.32
2022-11-17T13:34:36.845Z,977.35
2022-11-17T13:35:36.824Z,977.28
2022-11-17T13:36:36.794Z,977.34
2022-11-17T13:37:36.822Z,977.39
2022-11-17T13:38:36.790Z,977.41
2022-11-17T13:39:36.760Z,977.33
2022-11-17T13:40:36.787Z,977.30
2022-11-17T13:41:36.750Z,977.35
2022-11-17T13:42:36.779Z,977.35
2022-11-17T13:43:36.715Z,977.40
2022-11-17T13:44:36.740Z,977.40
2022-11-17T13:45:36.715Z,977.41
2022-11-17T13:46:36.714Z,977.43
2022-11-17T13:47:36.793Z,977.42
2022-11-17T13:48:36.663Z,977.42
2022-11-17T13:49:36.675Z,977.43
2022-11-17T13:50:36.656Z,977.39
2022-11-17T13:51:36.716Z,977.39
2022-11-17T13:52:41.922Z,977.43
2022-11-17T13:53:37.628Z,977.42
2022-11-17T13:54:36.657Z,977.42
2022-11-17T13:55:36.633Z,977.46
2022-11-17T13:56:36.613Z,977.45
2022-11-17T13:57:36.607Z,977.42
2022-11-17T13:58:36.561Z,977.38
2022-11-17T13:59:36.587Z,977.40
2022-11-17T14:00:36.537Z,977.46
2022-11-17T14:01:36.614Z,977.39
2022-11-17T14:02:36.574Z,977.42
2022-11-17T14:03:36.525Z,977.40
2022-11-17T14:04:36.526Z,977.37
2022-11-17T14:05:36.477Z,977.37
2022-11-17T14:06:36.499Z,977.42
2022-11-17T14:07:36.633Z,977.39
2022-11-17T14:08:36.447Z,977.31
2022-11-17T14:09:36.459Z,977.40
2022-11-17T14:10:36.436Z,977.40
2022-11-17T14:11:36.404Z,977.38
2022-11-17T14:12:36.400Z,977.36
2022-11-17T14:13:36.420Z,977.39
2022-11-17T14:14:36.375Z,977.39
2022-11-17T14:15:36.367Z,977.39
2022-11-17T14:16:36.465Z,977.34
2022-11-17T14:17:36.354Z,977.34
2022-11-17T14:18:36.362Z,977.39
2022-11-17T14:19:36.320Z,977.38
2022-11-17T14:20:36.328Z,977.41
2022-11-17T14:21:36.344Z,977.42
2022-11-17T14:22:36.306Z,977.50
2022-11-17T14:23:36.308Z,977.49
2022-11-17T14:24:36.344Z,977.50
2022-11-17T14:25:36.342Z,977.45
2022-11-17T14:26:36.280Z,977.46
2022-11-17T14:27:36.294Z,977.47
2022-11-17T14:28:36.298Z,977.43
2022-11-17T14:29:36.326Z,977.44
2022-11-17T14:30:37.149Z,977.37
2022-11-17T14:31:36.317Z,977.42
2022-11-17T14:32:36.222Z,977.41
2022-11-17T14:33:36.415Z,977.45
2022-11-17T14:34:36.321Z,977.45
2022-11-17T14:35:36.161Z,977.40
2022-11-17T14:36:36.167Z,977.41
2022-11-17T14:37:36.214Z,977.41
2022-11-17T14:38:36.167Z,977.44
2022-11-17T14:39:36.125Z,977.49
2022-11-17T14:40:36.125Z,977.45
2022-11-17T14:41:36.147Z,977.50
2022-11-17T14:42:36.494Z,977.49
2022-11-17T14:43:36.807Z,977.50
2022-11-17T14:44:36.093Z,977.50
2022-11-17T14:45:36.037Z,977.50
2022-11-17T14:46:36.064Z,977.48
2022-11-17T14:47:36.114Z,977.52
2022-11-17T14:48:36.035Z,977.49
2022-11-17T14:49:35.995Z,977.52
2022-11-17T14:50:36.171Z,977.56
2022-11-17T14:51:36.436Z,977.53
2022-11-17T14:52:36.425Z,977.58
2022-11-17T14:53:41.787Z,977.60
2022-11-17T14:54:36.039Z,977.62
2022-11-17T14:55:35.944Z,977.60
2022-11-17T14:56:35.939Z,977.59
2022-11-17T14:57:35.939Z,977.65
2022-11-17T14:58:35.927Z,977.72
2022-11-17T14:59:35.938Z,977.69
2022-11-17T15:00:35.870Z,977.70
2022-11-17T15:01:35.871Z,977.75
2022-11-17T15:02:35.897Z,977.72
2022-11-17T15:03:35.933Z,977.75
2022-11-17T15:04:49.945Z,977.78
2022-11-17T15:05:36.822Z,977.74
2022-11-17T15:06:35.867Z,977.77
2022-11-17T15:07:35.851Z,977.76
2022-11-17T15:08:35.831Z,977.75
2022-11-17T15:09:35.781Z,977.72
2022-11-17T15:10:35.780Z,977.71
2022-11-17T15:11:39.417Z,977.76
2022-11-17T15:12:35.762Z,977.81
2022-11-17T15:13:35.747Z,977.78
2022-11-17T15:14:35.734Z,977.78
2022-11-17T15:15:35.741Z,977.82
2022-11-17T15:16:35.699Z,977.83
2022-11-17T15:17:35.698Z,977.83
2022-11-17T15:18:35.703Z,977.89
2022-11-17T15:19:35.676Z,977.87
2022-11-17T15:20:35.672Z,977.87
2022-11-17T15:21:35.648Z,977.88
2022-11-17T15:22:35.638Z,977.92
2022-11-17T15:23:35.637Z,977.92
2022-11-17T15:24:35.637Z,977.93
2022-11-17T15:25:35.596Z,977.90
2022-11-17T15:26:35.593Z,977.94
2022-11-17T15:27:35.590Z,977.93
2022-11-17T15:28:35.581Z,977.92
2022-11-17T15:29:35.544Z,977.92
2022-11-17T15:30:35.584Z,977.93
2022-11-17T15:31:35.555Z,977.91
2022-11-17T15:32:35.522Z,977.89
2022-11-17T15:33:35.522Z,977.94
2022-11-17T15:34:36.222Z,977.95
2022-11-17T15:35:35.501Z,977.95
2022-11-17T15:36:35.503Z,977.97
2022-11-17T15:37:35.466Z,977.95
2022-11-17T15:38:35.482Z,977.97
2022-11-17T15:39:35.455Z,978.00
2022-11-17T15:40:35.455Z,977.99
2022-11-17T15:41:35.451Z,977.97
2022-11-17T15:42:35.421Z,978.03
2022-11-17T15:43:35.404Z,978.02
2022-11-17T15:44:35.392Z,978.06
2022-11-17T15:45:35.379Z,978.02
2022-11-17T15:46:35.394Z,978.04
2022-11-17T15:47:35.370Z,978.05
2022-11-17T15:48:35.358Z,978.02
2022-11-17T15:49:35.750Z,978.01
2022-11-17T15:50:35.364Z,978.03
2022-11-17T15:51:35.321Z,978.01
2022-11-17T15:53:02.305Z,978.01
2022-11-17T15:53:36.385Z,978.10
2022-11-17T15:54:35.292Z,978.10
2022-11-17T15:55:35.284Z,978.14
2022-11-17T15:56:35.269Z,978.19
2022-11-17T15:57:35.262Z,978.16
2022-11-17T15:58:35.254Z,978.17
2022-11-17T15:59:35.258Z,978.11
2022-11-17T16:00:35.230Z,978.21
2022-11-17T16:01:35.383Z,978.15
2022-11-17T16:02:58.422Z,978.18
2022-11-17T16:03:36.209Z,978.18
2022-11-17T16:04:35.188Z,978.21
2022-11-17T16:05:35.154Z,978.22
2022-11-17T16:06:35.153Z,978.23
2022-11-17T16:07:35.270Z,978.22
2022-11-17T16:08:35.130Z,978.24
2022-11-17T16:09:35.119Z,978.24
2022-11-17T16:10:35.113Z,978.23
2022-11-17T16:11:35.123Z,978.29
2022-11-17T16:12:35.105Z,978.28
2022-11-17T16:13:35.067Z,978.28
2022-11-17T16:14:35.087Z,978.24
2022-11-17T16:15:35.039Z,978.29
2022-11-17T16:16:35.039Z,978.31
2022-11-17T16:17:35.112Z,978.28
2022-11-17T16:18:35.047Z,978.33
2022-11-17T16:19:35.016Z,978.32
2022-11-17T16:20:35.128Z,978.32
2022-11-17T16:21:35.029Z,978.36
2022-11-17T16:22:34.971Z,978.29
2022-11-17T16:23:34.961Z,978.33
2022-11-17T16:24:34.966Z,978.37
2022-11-17T16:25:34.942Z,978.38
2022-11-17T16:26:34.970Z,978.38
2022-11-17T16:27:34.938Z,978.39
2022-11-17T16:28:34.901Z,978.41
2022-11-17T16:29:34.900Z,978.39
2022-11-17T16:30:35.731Z,978.39
2022-11-17T16:31:34.893Z,978.41
2022-11-17T16:32:34.872Z,978.38
2022-11-17T16:33:34.867Z,978.37
2022-11-17T16:34:34.894Z,978.36
2022-11-17T16:35:36.219Z,978.37
2022-11-17T16:36:37.216Z,978.42
2022-11-17T16:37:34.819Z,978.37
2022-11-17T16:38:34.899Z,978.43
2022-11-17T16:39:34.814Z,978.40
2022-11-17T16:40:34.847Z,978.37
2022-11-17T16:41:38.724Z,978.41
2022-11-17T16:43:44.751Z,978.44
2022-11-17T16:44:44.120Z,978.42
2022-11-17T16:45:44.704Z,978.46
2022-11-17T16:46:44.709Z,978.45
2022-11-17T16:47:44.005Z,978.41
2022-11-17T16:48:44.002Z,978.44
2022-11-17T16:49:46.757Z,978.47
2022-11-17T16:50:44.969Z,978.51
2022-11-17T16:51:43.984Z,978.55
2022-11-17T16:52:43.977Z,978.53
2022-11-17T16:53:43.937Z,978.51
2022-11-17T16:54:43.948Z,978.50
2022-11-17T16:55:43.913Z,978.57
2022-11-17T16:56:43.928Z,978.50
2022-11-17T16:57:43.893Z,978.53
2022-11-17T16:58:43.906Z,978.60
2022-11-17T16:59:43.916Z,978.62
2022-11-17T17:00:43.871Z,978.59
2022-11-17T17:01:43.847Z,978.63
2022-11-17T17:02:43.925Z,978.59
2022-11-17T17:03:43.821Z,978.60
2022-11-17T17:04:43.812Z,978.62
2022-11-17T17:05:43.826Z,978.60
2022-11-17T17:06:43.798Z,978.61
2022-11-17T17:07:43.845Z,978.64
2022-11-17T17:08:43.790Z,978.62
2022-11-17T17:09:43.781Z,978.64
2022-11-17T17:10:43.752Z,978.59
2022-11-17T17:11:43.776Z,978.57
2022-11-17T17:12:43.748Z,978.56
2022-11-17T17:13:43.751Z,978.55
2022-11-17T17:14:43.710Z,978.52
2022-11-17T17:15:43.689Z,978.55
2022-11-17T17:16:43.695Z,978.52
2022-11-17T17:17:43.690Z,978.53
2022-11-17T17:18:43.681Z,978.53
2022-11-17T17:19:43.652Z,978.50
2022-11-17T17:20:43.643Z,978.53
2022-11-17T17:21:43.640Z,978.57
2022-11-17T17:22:43.618Z,978.56
2022-11-17T17:23:43.656Z,978.56
2022-11-17T17:24:43.604Z,978.56
2022-11-17T17:25:43.585Z,978.55
2022-11-17T17:26:43.579Z,978.54
2022-11-17T17:27:43.585Z,978.54
2022-11-17T17:28:43.571Z,978.55
2022-11-17T17:29:43.546Z,978.58
2022-11-17T17:30:43.546Z,978.58
2022-11-17T17:31:43.564Z,978.60
2022-11-17T17:32:43.514Z,978.62
2022-11-17T17:33:43.518Z,978.57
2022-11-17T17:34:44.230Z,978.63
2022-11-17T17:35:43.493Z,978.62
2022-11-17T17:36:43.480Z,978.64
2022-11-17T17:37:43.497Z,978.61
2022-11-17T17:38:43.477Z,978.68
2022-11-17T17:39:43.468Z,978.68
2022-11-17T17:40:43.453Z,978.68
2022-11-17T17:41:43.463Z,978.70
2022-11-17T17:42:43.441Z,978.70
2022-11-17T17:43:43.419Z,978.70
2022-11-17T17:44:43.443Z,978.76
2022-11-17T17:45:43.386Z,978.77
2022-11-17T17:46:43.368Z,978.79
2022-11-17T17:47:43.355Z,978.78
2022-11-17T17:48:43.421Z,978.82
2022-11-17T17:49:43.353Z,978.81
2022-11-17T17:50:43.333Z,978.83
2022-11-17T17:51:43.339Z,978.83
2022-11-17T17:52:43.302Z,978.85
2022-11-17T17:53:43.288Z,978.90
2022-11-17T17:54:43.285Z,978.85
2022-11-17T17:55:43.278Z,978.96
2022-11-17T17:56:43.262Z,978.96
2022-11-17T17:57:43.268Z,979.04
2022-11-17T17:58:43.252Z,979.00
2022-11-17T17:59:43.238Z,979.03